Crosby, Washington
Current Conditions -  °F | °C
As of 12:35 AM on Sunday 21 Dec 2014 (Local Time) from KPWT Reporting Station
Clear Clear  
Wind Chill: 52°   Ceiling: Unl
Heat Index: 52°   Visibility: 10mi
Dew Point: 50°   Wind: 15mph
Humidity: 94%   Direction: 200°SSW
Pressure: 29.6"   Gusts: 22mph
Location:  47.5964°N, 122.62°W
Report Text: KPWT 210835Z AUTO 20013G19KT 10SM CLR 11/10 A2960 RMK AO1
Loading
Personal Weather Stations






























Interactive Weather Map New forecast layout! Learn more

10-Day Weather Forecast

Advertisements
Track Severe Weather on mobile